Time;durP1;ratioP1;P1;durP2;ratioP2;P2;SDS_P1;SDS_P2;PMS_P1;PMS_P2;Temp;Humidity;BMP_temperature;BMP_pressure;BME280_temperature;BME280_humidity;BME280_pressure;Samples;Min_cycle;Max_cycle;Signal;HPM_P1;HPM_P2
2020/12/05 00:01:16;;;;;;;2.28;0.60;;;1.60;99.90;;;;;;5054172;28;20123;-83
2020/12/05 00:03:42;;;;;;;2.83;0.60;;;1.60;99.90;;;;;;5054836;28;20028;-83
2020/12/05 00:06:07;;;;;;;2.13;0.57;;;1.70;99.90;;;;;;5049659;28;20051;-82
2020/12/05 00:08:35;;;;;;;3.28;0.52;;;1.60;99.90;;;;;;5059302;28;20404;-83
2020/12/05 00:11:00;;;;;;;2.60;0.45;;;1.50;99.90;;;;;;5050427;28;20029;-83
2020/12/05 00:13:26;;;;;;;1.60;0.52;;;1.60;99.90;;;;;;5050277;28;20039;-83
2020/12/05 00:15:52;;;;;;;2.63;0.60;;;1.50;99.90;;;;;;5042701;28;20076;-82
2020/12/05 00:18:18;;;;;;;2.47;0.60;;;1.40;99.90;;;;;;5029223;28;20120;-83
2020/12/05 00:20:45;;;;;;;2.95;0.52;;;1.40;99.90;;;;;;5014048;28;20049;-82
2020/12/05 00:23:12;;;;;;;3.25;0.60;;;1.40;99.90;;;;;;5030176;28;20354;-83
2020/12/05 00:25:41;;;;;;;3.10;0.60;;;1.50;99.90;;;;;;5030332;28;20037;-82
2020/12/05 00:28:06;;;;;;;2.70;0.60;;;1.50;99.90;;;;;;5030189;28;20025;-82
2020/12/05 00:30:33;;;;;;;1.90;0.40;;;1.50;99.90;;;;;;5047895;28;20025;-82
2020/12/05 00:33:00;;;;;;;2.20;0.60;;;1.60;99.90;;;;;;5013974;28;20507;-83
2020/12/05 00:35:27;;;;;;;1.75;0.52;;;1.60;99.90;;;;;;5021881;28;20037;-83
2020/12/05 00:37:53;;;;;;;3.10;0.52;;;1.60;99.90;;;;;;5030082;28;20029;-82
2020/12/05 00:40:20;;;;;;;1.95;0.50;;;1.60;99.90;;;;;;5032757;28;20048;-82
2020/12/05 00:42:46;;;;;;;2.25;0.50;;;1.50;99.90;;;;;;5033026;28;20055;-83
2020/12/05 00:45:11;;;;;;;1.38;0.47;;;1.50;99.90;;;;;;5049385;28;20037;-83
2020/12/05 00:47:37;;;;;;;1.75;0.57;;;1.50;99.90;;;;;;5046418;28;20093;-83
2020/12/05 00:50:03;;;;;;;1.85;0.60;;;1.50;99.90;;;;;;5046712;28;20029;-83
2020/12/05 00:52:29;;;;;;;2.33;0.52;;;1.50;99.90;;;;;;5046084;28;20116;-83
2020/12/05 00:54:55;;;;;;;2.50;0.70;;;1.50;99.90;;;;;;5065911;28;20033;-83
2020/12/05 00:57:21;;;;;;;2.78;0.70;;;1.50;99.90;;;;;;5049214;28;20029;-83
2020/12/05 00:59:47;;;;;;;1.85;0.60;;;1.40;99.90;;;;;;5045340;28;20060;-83
2020/12/05 01:02:12;;;;;;;3.25;0.50;;;1.20;99.90;;;;;;5062792;28;20017;-83
2020/12/05 01:04:38;;;;;;;2.30;0.50;;;1.30;99.90;;;;;;5046036;28;20026;-83
2020/12/05 01:07:03;;;;;;;2.40;0.52;;;1.20;99.90;;;;;;5082540;28;20074;-83
2020/12/05 01:09:29;;;;;;;2.00;0.55;;;1.20;99.90;;;;;;5052917;28;20039;-82
2020/12/05 01:11:55;;;;;;;2.53;0.65;;;1.10;99.90;;;;;;5052555;28;20131;-83
2020/12/05 01:14:20;;;;;;;2.65;0.60;;;1.00;99.90;;;;;;5083296;28;20087;-82
2020/12/05 01:16:46;;;;;;;2.35;0.60;;;1.00;99.90;;;;;;5066908;28;20029;-82
2020/12/05 01:19:12;;;;;;;2.45;0.70;;;0.90;99.90;;;;;;5049057;28;20033;-82
2020/12/05 01:21:37;;;;;;;1.73;0.50;;;0.90;99.90;;;;;;5048950;28;20037;-83
2020/12/05 01:24:03;;;;;;;2.28;0.65;;;0.80;99.90;;;;;;5048825;28;20048;-83
2020/12/05 01:26:29;;;;;;;1.92;0.60;;;0.80;99.90;;;;;;5048700;28;20032;-82
2020/12/05 01:28:54;;;;;;;2.00;0.60;;;0.90;99.90;;;;;;5049261;28;20049;-83
2020/12/05 01:31:20;;;;;;;3.15;0.60;;;0.90;99.90;;;;;;5048974;28;20037;-83
2020/12/05 01:33:46;;;;;;;2.00;0.70;;;0.80;99.90;;;;;;5065363;28;20055;-83
2020/12/05 01:36:12;;;;;;;2.20;0.60;;;0.80;99.90;;;;;;5065222;28;20041;-83
2020/12/05 01:38:37;;;;;;;1.92;0.75;;;0.80;99.90;;;;;;5048453;28;20056;-83
2020/12/05 01:41:03;;;;;;;1.98;0.70;;;0.80;99.90;;;;;;5068538;28;20048;-82
2020/12/05 01:43:31;;;;;;;3.25;0.75;;;0.80;99.90;;;;;;5085397;28;20025;-83
2020/12/05 01:46:03;;;;;;;2.17;0.60;;;0.80;99.90;;;;;;5068559;28;20032;-82
2020/12/05 01:48:28;;;;;;;2.15;0.70;;;0.80;99.90;;;;;;5051850;28;20028;-83
2020/12/05 01:50:55;;;;;;;2.05;0.50;;;0.70;99.90;;;;;;5085206;28;20096;-83
2020/12/05 01:53:24;;;;;;;2.17;0.68;;;0.70;99.90;;;;;;5051685;28;20107;-82
2020/12/05 01:55:51;;;;;;;3.67;0.75;;;0.70;99.90;;;;;;5052217;28;20185;-83
2020/12/05 01:58:17;;;;;;;1.95;0.60;;;0.70;99.90;;;;;;5051920;28;20039;-83
2020/12/05 02:00:44;;;;;;;2.25;0.60;;;0.70;99.90;;;;;;5085096;28;20123;-83
2020/12/05 02:03:16;;;;;;;1.60;0.60;;;0.70;99.90;;;;;;5051581;28;20052;-83
2020/12/05 02:06:02;;;;;;;3.17;0.60;;;0.70;99.90;;;;;;5051209;28;20112;-82
2020/12/05 02:08:56;;;;;;;2.55;0.68;;;0.60;99.90;;;;;;5068262;28;20036;-83
2020/12/05 02:11:27;;;;;;;3.42;1.02;;;0.70;99.90;;;;;;5051567;28;20025;-82
2020/12/05 02:13:58;;;;;;;3.80;0.60;;;0.70;99.90;;;;;;5051385;28;20063;-83
2020/12/05 02:16:24;;;;;;;4.47;0.70;;;0.70;99.90;;;;;;5028488;28;20064;-83
2020/12/05 02:18:52;;;;;;;2.25;0.60;;;0.70;99.90;;;;;;5028354;28;20072;-83
2020/12/05 02:21:20;;;;;;;2.15;0.70;;;0.70;99.90;;;;;;5011068;28;20133;-82
2020/12/05 02:23:46;;;;;;;2.25;0.60;;;0.70;99.90;;;;;;5028262;28;20029;-83
2020/12/05 02:26:12;;;;;;;2.17;0.70;;;0.80;99.90;;;;;;5046116;28;20032;-82
2020/12/05 02:28:38;;;;;;;2.25;0.60;;;0.80;99.90;;;;;;5044723;28;20040;-82
2020/12/05 02:31:04;;;;;;;3.42;0.68;;;0.80;99.90;;;;;;5028360;28;20033;-83
2020/12/05 02:33:29;;;;;;;2.92;0.70;;;0.80;99.90;;;;;;5028150;28;20033;-83
2020/12/05 02:35:55;;;;;;;2.30;0.65;;;0.80;99.90;;;;;;5028245;28;20059;-82
2020/12/05 02:38:29;;;;;;;1.70;0.68;;;0.80;99.90;;;;;;5028245;28;20034;-83
2020/12/05 02:40:56;;;;;;;3.53;0.63;;;0.80;99.90;;;;;;5040841;28;20038;-82
2020/12/05 02:43:23;;;;;;;2.22;0.63;;;0.70;99.90;;;;;;5011610;28;20041;-83
2020/12/05 02:45:49;;;;;;;2.80;0.63;;;0.80;99.90;;;;;;5011769;28;20497;-82
2020/12/05 02:48:14;;;;;;;1.88;0.93;;;0.80;99.90;;;;;;5011843;28;20033;-83
2020/12/05 02:50:40;;;;;;;2.85;0.82;;;0.70;99.90;;;;;;5028424;28;20041;-82
2020/12/05 02:53:05;;;;;;;3.72;1.20;;;0.70;99.90;;;;;;5011626;28;20067;-83
2020/12/05 02:55:31;;;;;;;1.90;0.70;;;0.70;99.90;;;;;;5011621;28;20029;-83
2020/12/05 02:57:57;;;;;;;4.13;0.90;;;0.80;99.90;;;;;;5011652;28;20032;-83
2020/12/05 03:00:23;;;;;;;4.75;0.85;;;0.80;99.90;;;;;;5011842;28;20060;-82
2020/12/05 03:02:50;;;;;;;2.65;0.70;;;0.80;99.90;;;;;;5028007;28;20033;-83
2020/12/05 03:05:15;;;;;;;2.70;0.75;;;0.80;99.90;;;;;;5011286;28;20045;-83
2020/12/05 03:07:41;;;;;;;3.88;0.73;;;0.80;99.90;;;;;;5008275;28;20064;-82
2020/12/05 03:10:06;;;;;;;2.63;0.70;;;0.80;99.90;;;;;;5027618;28;20128;-82
2020/12/05 03:12:32;;;;;;;2.45;0.70;;;0.70;99.90;;;;;;5008189;28;20026;-82
2020/12/05 03:14:58;;;;;;;3.22;0.90;;;0.70;99.90;;;;;;5016723;28;20033;-83
2020/12/05 03:17:23;;;;;;;2.47;1.00;;;0.80;99.90;;;;;;5031316;28;20032;-82
2020/12/05 03:19:49;;;;;;;3.53;0.90;;;0.80;99.90;;;;;;5047623;28;20041;-83
2020/12/05 03:22:14;;;;;;;3.47;0.80;;;0.80;99.90;;;;;;5049415;28;20032;-83
2020/12/05 03:24:40;;;;;;;3.45;0.70;;;0.80;99.90;;;;;;5034460;28;20060;-82
2020/12/05 03:27:05;;;;;;;3.10;0.80;;;0.80;99.90;;;;;;5051324;28;20029;-83
2020/12/05 03:29:31;;;;;;;3.72;1.00;;;0.80;99.90;;;;;;5051319;28;20052;-82
2020/12/05 03:32:12;;;;;;;2.85;0.88;;;0.80;99.90;;;;;;5051202;28;20037;-83
2020/12/05 03:34:41;;;;;;;2.75;0.70;;;0.80;99.90;;;;;;5060852;28;20050;-82
2020/12/05 03:37:10;;;;;;;2.53;0.85;;;0.70;99.90;;;;;;5048882;28;20030;-83
2020/12/05 03:39:36;;;;;;;2.63;0.80;;;0.70;99.90;;;;;;5031138;28;20033;-82
2020/12/05 03:42:02;;;;;;;3.05;0.75;;;0.70;99.90;;;;;;5051086;28;20037;-82
2020/12/05 03:44:28;;;;;;;2.60;0.80;;;0.70;99.90;;;;;;5050915;28;20029;-82
2020/12/05 03:46:53;;;;;;;3.13;0.80;;;0.70;99.90;;;;;;5064286;28;20049;-83
2020/12/05 03:49:19;;;;;;;2.88;0.88;;;0.70;99.90;;;;;;5041239;28;20120;-83
2020/12/05 03:51:44;;;;;;;2.83;0.88;;;0.60;99.90;;;;;;5051010;28;20025;-83
2020/12/05 03:54:10;;;;;;;2.58;0.93;;;0.60;99.90;;;;;;5047434;28;20124;-83
2020/12/05 03:56:36;;;;;;;2.92;0.80;;;0.60;99.90;;;;;;5024192;28;20037;-83
2020/12/05 03:59:01;;;;;;;2.63;0.70;;;0.60;99.90;;;;;;5047551;28;20026;-82
2020/12/05 04:01:27;;;;;;;3.42;0.80;;;0.60;99.90;;;;;;5047590;28;20029;-82
2020/12/05 04:03:52;;;;;;;2.95;0.80;;;0.50;99.90;;;;;;5017774;28;20271;-83
2020/12/05 04:06:18;;;;;;;2.60;0.80;;;0.50;99.90;;;;;;5050042;28;20052;-82
2020/12/05 04:08:43;;;;;;;4.35;1.10;;;0.50;99.90;;;;;;5047310;28;20060;-82
2020/12/05 04:11:09;;;;;;;3.75;0.95;;;0.40;99.90;;;;;;5029654;28;20026;-82
2020/12/05 04:13:35;;;;;;;3.85;1.10;;;0.40;99.90;;;;;;5047108;28;20044;-83
2020/12/05 04:16:01;;;;;;;4.43;1.10;;;0.40;99.90;;;;;;5038849;28;20068;-83
2020/12/05 04:18:26;;;;;;;2.83;0.73;;;0.30;99.90;;;;;;5047082;28;20034;-83
2020/12/05 04:20:52;;;;;;;3.25;0.90;;;0.30;99.90;;;;;;5050604;28;20044;-82
2020/12/05 04:23:18;;;;;;;4.13;1.30;;;0.30;99.90;;;;;;5067256;28;20025;-83
2020/12/05 04:25:43;;;;;;;3.58;1.15;;;0.30;99.90;;;;;;5060933;28;20048;-83
2020/12/05 04:28:09;;;;;;;3.20;1.10;;;0.30;99.90;;;;;;5045667;28;20044;-82
2020/12/05 04:30:35;;;;;;;2.92;0.90;;;0.30;99.90;;;;;;5042975;28;20031;-83
2020/12/05 04:33:00;;;;;;;3.50;0.98;;;0.30;99.90;;;;;;5047673;28;20519;-82
2020/12/05 04:35:26;;;;;;;4.03;1.38;;;0.30;99.90;;;;;;5067598;28;20032;-83
2020/12/05 04:37:51;;;;;;;3.45;1.55;;;0.30;99.90;;;;;;5049886;28;20029;-82
2020/12/05 04:40:18;;;;;;;4.95;1.05;;;0.20;99.90;;;;;;5032439;28;20069;-82
2020/12/05 04:42:45;;;;;;;2.72;1.00;;;0.20;99.90;;;;;;5044486;28;20064;-82
2020/12/05 04:45:12;;;;;;;4.15;1.20;;;0.20;99.90;;;;;;5033099;28;20044;-82
2020/12/05 04:47:40;;;;;;;3.80;1.38;;;0.10;99.90;;;;;;5033157;28;20340;-81
2020/12/05 04:50:07;;;;;;;5.50;1.27;;;0.00;99.90;;;;;;5033355;28;20416;-83
2020/12/05 04:52:41;;;;;;;2.67;1.00;;;0.00;99.90;;;;;;5029203;28;20056;-83
2020/12/05 04:55:08;;;;;;;2.60;1.00;;;0.10;99.90;;;;;;5049477;28;20036;-82
2020/12/05 04:57:48;;;;;;;2.50;1.10;;;-0.10;99.90;;;;;;5033048;28;20033;-82
2020/12/05 05:00:14;;;;;;;4.32;1.33;;;-0.10;99.90;;;;;;5033252;28;20047;-83
2020/12/05 05:02:44;;;;;;;4.80;1.35;;;-0.10;99.90;;;;;;5049471;28;20037;-83
2020/12/05 05:05:12;;;;;;;3.83;1.30;;;-0.10;99.90;;;;;;5035540;28;20055;-82
2020/12/05 05:07:48;;;;;;;4.38;1.20;;;-0.10;99.90;;;;;;5069425;28;20445;-82
2020/12/05 05:10:21;;;;;;;3.22;1.35;;;-0.10;99.90;;;;;;5069259;28;20051;-82
2020/12/05 05:12:47;;;;;;;3.13;1.35;;;0.00;99.90;;;;;;5069266;28;20035;-82
2020/12/05 05:15:30;;;;;;;2.42;1.15;;;0.00;99.90;;;;;;5058144;28;20024;-83
2020/12/05 05:18:03;;;;;;;4.78;1.60;;;0.00;99.90;;;;;;5065793;28;20100;-82
2020/12/05 05:20:35;;;;;;;4.78;1.60;;;-0.10;99.90;;;;;;5045727;28;20057;-82
2020/12/05 05:23:17;;;;;;;4.78;1.30;;;-0.10;99.90;;;;;;5042553;28;20236;-83
2020/12/05 05:25:54;;;;;;;4.25;1.45;;;-0.20;99.90;;;;;;5032193;28;20033;-82
2020/12/05 05:28:28;;;;;;;3.72;1.25;;;-0.20;99.90;;;;;;5048840;28;20075;-83
2020/12/05 05:31:09;;;;;;;4.25;1.55;;;-0.30;99.90;;;;;;5048785;28;20485;-82
2020/12/05 05:33:40;;;;;;;3.78;1.33;;;-0.30;99.90;;;;;;5048679;28;20037;-83
2020/12/05 05:36:25;;;;;;;4.35;1.42;;;-0.30;99.90;;;;;;5065299;28;20028;-82
2020/12/05 05:39:08;;;;;;;3.20;1.30;;;-0.20;99.90;;;;;;5065524;28;20035;-82
2020/12/05 05:41:37;;;;;;;3.92;1.13;;;-0.10;99.90;;;;;;5045659;28;20051;-81
2020/12/05 05:44:04;;;;;;;3.45;0.98;;;-0.10;99.90;;;;;;5028370;28;20064;-82
2020/12/05 05:46:40;;;;;;;5.75;1.73;;;-0.10;99.90;;;;;;5046454;28;20036;-82
2020/12/05 05:49:06;;;;;;;3.13;1.20;;;-0.20;99.90;;;;;;5028853;28;20029;-82
2020/12/05 05:51:44;;;;;;;3.25;1.23;;;-0.10;99.90;;;;;;5028989;28;20055;-82
2020/12/05 05:54:25;;;;;;;4.45;1.42;;;-0.30;99.90;;;;;;5028619;28;20378;-83
2020/12/05 05:56:56;;;;;;;3.83;1.27;;;-0.20;99.90;;;;;;5028684;28;20037;-82
2020/12/05 05:59:23;;;;;;;5.32;1.10;;;-0.30;99.90;;;;;;5028580;28;20393;-82
2020/12/05 06:01:50;;;;;;;3.42;1.00;;;-0.20;99.90;;;;;;5028697;28;20033;-82
2020/12/05 06:04:37;;;;;;;3.97;1.85;;;-0.20;99.90;;;;;;5044803;28;20551;-82
2020/12/05 06:07:06;;;;;;;3.92;1.38;;;-0.20;99.90;;;;;;4963035;28;20061;-82
2020/12/05 06:09:43;;;;;;;3.78;1.52;;;-0.20;99.90;;;;;;4968839;28;20070;-84
2020/12/05 06:12:48;;;;;;;3.63;1.27;;;-0.30;99.90;;;;;;4975266;28;20046;-83
2020/12/05 06:15:14;;;;;;;7.00;1.45;;;-0.30;99.90;;;;;;4916418;29;20131;-84
2020/12/05 06:17:40;;;;;;;3.60;1.17;;;-0.40;99.90;;;;;;4908318;29;20077;-83
2020/12/05 06:20:07;;;;;;;2.70;1.08;;;-0.40;99.90;;;;;;4908261;29;20057;-83
2020/12/05 06:22:49;;;;;;;2.97;1.27;;;-0.40;99.90;;;;;;4908317;29;20037;-83
2020/12/05 06:25:17;;;;;;;3.33;1.42;;;-0.40;99.90;;;;;;4908047;29;20048;-83
2020/12/05 06:28:15;;;;;;;3.72;1.40;;;-0.60;99.90;;;;;;4892388;29;20044;-83
2020/12/05 06:30:48;;;;;;;3.50;1.13;;;-0.60;99.90;;;;;;4852432;29;20045;-84
2020/12/05 06:33:39;;;;;;;3.08;1.40;;;-0.60;99.90;;;;;;4892560;29;20072;-83
2020/12/05 06:36:26;;;;;;;4.65;1.30;;;-0.60;99.90;;;;;;4907881;29;20532;-82
2020/12/05 06:39:13;;;;;;;5.35;1.23;;;-0.70;99.90;;;;;;4908232;29;20093;-83
2020/12/05 06:41:45;;;;;;;3.33;1.20;;;-0.60;99.90;;;;;;4905122;29;20044;-83
2020/12/05 06:44:24;;;;;;;4.28;1.60;;;-0.70;99.90;;;;;;4921492;29;20054;-83
2020/12/05 06:46:58;;;;;;;4.68;1.42;;;-0.60;99.90;;;;;;5030715;28;20045;-82
2020/12/05 06:49:38;;;;;;;4.13;1.77;;;-0.70;99.90;;;;;;5013761;28;20042;-83
2020/12/05 06:52:28;;;;;;;4.22;1.65;;;-0.70;99.90;;;;;;5028694;28;20067;-82
2020/12/05 06:55:06;;;;;;;3.47;1.55;;;-0.80;99.90;;;;;;5044077;28;20063;-83
2020/12/05 06:57:33;;;;;;;3.47;1.67;;;-0.90;99.90;;;;;;5046994;28;20030;-83
2020/12/05 07:00:25;;;;;;;3.92;1.73;;;-0.90;99.90;;;;;;5015460;28;20034;-83
2020/12/05 07:03:25;;;;;;;3.92;1.38;;;-0.80;99.90;;;;;;5015626;28;20033;-83
2020/12/05 07:05:50;;;;;;;4.13;2.07;;;-0.80;99.90;;;;;;5019493;28;20048;-83
2020/12/05 07:08:37;;;;;;;5.28;2.15;;;-0.90;99.90;;;;;;5068252;28;20100;-82
2020/12/05 07:11:12;;;;;;;4.00;1.50;;;-0.80;99.90;;;;;;5051587;28;20036;-83
2020/12/05 07:13:42;;;;;;;4.80;1.90;;;-0.90;99.90;;;;;;5051294;28;20037;-83
2020/12/05 07:16:08;;;;;;;3.88;1.42;;;-0.80;99.90;;;;;;5066351;28;20025;-82
2020/12/05 07:18:36;;;;;;;5.72;1.52;;;-0.80;99.90;;;;;;5051617;28;20048;-82
2020/12/05 07:21:04;;;;;;;3.63;1.50;;;-0.80;99.90;;;;;;5081628;28;20041;-82
2020/12/05 07:23:30;;;;;;;3.42;1.52;;;-0.60;99.90;;;;;;5054373;28;20024;-83
2020/12/05 07:25:58;;;;;;;3.35;1.80;;;-0.40;99.90;;;;;;5054089;28;20029;-83
2020/12/05 07:28:23;;;;;;;3.78;1.40;;;-0.30;99.90;;;;;;5051227;28;20037;-82
2020/12/05 07:30:50;;;;;;;3.92;1.50;;;-0.30;99.90;;;;;;5038101;28;20027;-82
2020/12/05 07:33:16;;;;;;;4.45;1.50;;;-0.30;99.90;;;;;;5070999;28;20025;-82
2020/12/05 07:35:41;;;;;;;4.30;1.42;;;-0.30;99.90;;;;;;5036044;28;20059;-83
2020/12/05 07:38:15;;;;;;;5.10;1.55;;;-0.30;99.90;;;;;;5068469;28;20029;-83
2020/12/05 07:40:41;;;;;;;4.82;1.80;;;-0.20;99.90;;;;;;5046548;28;20040;-82
2020/12/05 07:43:17;;;;;;;3.88;1.92;;;-0.20;99.90;;;;;;5050642;28;20040;-83
2020/12/05 07:45:43;;;;;;;3.60;2.20;;;-0.10;99.90;;;;;;5052865;28;20043;-83
2020/12/05 07:48:13;;;;;;;5.72;2.08;;;0.00;99.90;;;;;;5058292;28;20021;-83
2020/12/05 07:50:39;;;;;;;6.72;2.35;;;-0.10;99.90;;;;;;5062523;28;20039;-83
2020/12/05 07:53:18;;;;;;;4.63;2.28;;;0.10;99.90;;;;;;5050595;28;20115;-82
2020/12/05 07:55:43;;;;;;;4.93;2.28;;;0.10;99.90;;;;;;5051526;28;20039;-83
2020/12/05 07:58:09;;;;;;;5.32;1.67;;;0.10;99.90;;;;;;5047832;28;20025;-83
2020/12/05 08:00:35;;;;;;;6.32;2.55;;;0.10;99.90;;;;;;5061132;28;20044;-83
2020/12/05 08:03:29;;;;;;;5.15;1.75;;;0.20;99.90;;;;;;5057917;28;20052;-82
2020/12/05 08:05:58;;;;;;;5.25;2.10;;;0.30;99.90;;;;;;5061298;28;20048;-82
2020/12/05 08:08:28;;;;;;;5.25;2.60;;;0.30;99.90;;;;;;5040162;28;20029;-83
2020/12/05 08:11:01;;;;;;;6.75;3.00;;;0.40;99.90;;;;;;5048641;28;20017;-82
2020/12/05 08:13:28;;;;;;;4.50;1.98;;;0.60;99.90;;;;;;5054741;28;20040;-83
2020/12/05 08:16:00;;;;;;;4.80;2.33;;;0.70;99.90;;;;;;5051798;28;20048;-83
2020/12/05 08:18:27;;;;;;;3.63;1.70;;;0.80;99.90;;;;;;5044933;28;20050;-83
2020/12/05 08:20:53;;;;;;;4.32;1.92;;;0.70;99.90;;;;;;5063302;28;20477;-83
2020/12/05 08:23:20;;;;;;;4.18;2.08;;;0.60;99.90;;;;;;5061888;28;20024;-83
2020/12/05 08:25:48;;;;;;;5.25;2.00;;;0.60;99.90;;;;;;5039708;28;20040;-83
2020/12/05 08:28:14;;;;;;;4.38;2.08;;;0.60;99.90;;;;;;5047631;28;20119;-83
2020/12/05 08:30:40;;;;;;;4.13;1.92;;;0.60;99.90;;;;;;5057772;28;20091;-83
2020/12/05 08:33:06;;;;;;;6.22;2.08;;;0.70;99.90;;;;;;5044968;28;20017;-83
2020/12/05 08:35:32;;;;;;;4.35;2.00;;;0.60;99.90;;;;;;5038442;28;20037;-82
2020/12/05 08:38:02;;;;;;;5.35;2.35;;;0.70;99.90;;;;;;5039121;28;20025;-83
2020/12/05 08:40:29;;;;;;;4.07;1.67;;;0.80;99.90;;;;;;5033964;28;20050;-83
2020/12/05 08:42:55;;;;;;;5.97;2.50;;;0.80;99.90;;;;;;5073944;28;20067;-83
2020/12/05 08:45:21;;;;;;;7.80;2.70;;;0.90;99.90;;;;;;5054675;28;20032;-83
2020/12/05 08:47:51;;;;;;;4.22;2.35;;;1.00;99.90;;;;;;5040222;28;20033;-83
2020/12/05 08:50:26;;;;;;;4.80;2.17;;;1.10;99.90;;;;;;5055490;28;20025;-83
2020/12/05 08:52:59;;;;;;;5.32;2.33;;;1.10;99.90;;;;;;5074513;28;20032;-81
2020/12/05 08:55:25;;;;;;;4.75;2.28;;;1.20;99.90;;;;;;5057281;28;20116;-83
2020/12/05 08:58:02;;;;;;;6.22;2.20;;;1.30;99.90;;;;;;5039060;28;20032;-83
2020/12/05 09:00:32;;;;;;;4.18;1.95;;;1.50;99.90;;;;;;5052626;28;20036;-83
2020/12/05 09:02:58;;;;;;;7.40;2.47;;;1.50;99.90;;;;;;5085191;28;20128;-83
2020/12/05 09:05:24;;;;;;;6.30;2.22;;;1.60;99.90;;;;;;5068268;28;20123;-84
2020/12/05 09:07:57;;;;;;;5.68;1.80;;;1.80;99.90;;;;;;5053270;28;20071;-83
2020/12/05 09:10:29;;;;;;;3.47;1.88;;;1.90;99.90;;;;;;5014777;28;20037;-83
2020/12/05 09:13:07;;;;;;;4.00;2.53;;;1.90;99.90;;;;;;5050341;28;20025;-83
2020/12/05 09:15:33;;;;;;;8.00;3.05;;;2.20;99.90;;;;;;5032480;28;20036;-83
2020/12/05 09:17:59;;;;;;;8.48;4.05;;;2.40;99.90;;;;;;5031900;28;20020;-83
2020/12/05 09:20:25;;;;;;;8.40;2.92;;;2.50;99.90;;;;;;5031341;28;20044;-83
2020/12/05 09:22:53;;;;;;;7.60;3.83;;;2.50;99.90;;;;;;5039077;28;20083;-84
2020/12/05 09:25:31;;;;;;;5.47;3.33;;;2.60;99.90;;;;;;5033237;28;20036;-83
2020/12/05 09:27:58;;;;;;;6.50;3.80;;;2.70;99.90;;;;;;5053967;28;20024;-83
2020/12/05 09:30:26;;;;;;;6.25;3.15;;;2.80;99.90;;;;;;5041254;28;20065;-82
2020/12/05 09:32:53;;;;;;;5.68;3.25;;;2.90;99.90;;;;;;5054958;28;20036;-83
2020/12/05 09:35:22;;;;;;;6.13;3.53;;;3.00;99.90;;;;;;5044914;28;20040;-83
2020/12/05 09:37:49;;;;;;;5.82;2.85;;;3.10;99.90;;;;;;5050980;28;20037;-83
2020/12/05 09:40:18;;;;;;;4.63;2.55;;;3.10;99.90;;;;;;5046041;28;20037;-83
2020/12/05 09:42:45;;;;;;;5.13;2.33;;;3.20;99.90;;;;;;5047596;28;20071;-83
2020/12/05 09:45:12;;;;;;;4.20;2.05;;;3.30;99.90;;;;;;5064381;28;20032;-83
2020/12/05 09:47:40;;;;;;;5.75;2.67;;;3.30;99.90;;;;;;5037458;28;20021;-83
2020/12/05 09:50:06;;;;;;;6.05;3.45;;;3.30;99.90;;;;;;5039776;28;20025;-83
2020/12/05 09:52:32;;;;;;;6.13;3.65;;;3.40;99.90;;;;;;5017543;28;20039;-83
2020/12/05 09:54:58;;;;;;;3.85;2.10;;;3.50;99.90;;;;;;5035785;28;20033;-83
2020/12/05 09:57:24;;;;;;;4.40;2.63;;;3.60;99.90;;;;;;5047594;28;20063;-83
2020/12/05 09:59:50;;;;;;;4.85;2.20;;;3.70;99.90;;;;;;5018662;28;20032;-83
2020/12/05 10:02:16;;;;;;;6.43;2.78;;;3.70;99.90;;;;;;5038030;28;20032;-83
2020/12/05 10:04:42;;;;;;;4.47;2.75;;;3.80;99.90;;;;;;4982379;28;20049;-82
2020/12/05 10:07:08;;;;;;;4.55;2.25;;;3.90;99.90;;;;;;5018787;28;20076;-84
2020/12/05 10:09:34;;;;;;;5.60;2.90;;;4.00;99.90;;;;;;5032302;28;20192;-84
2020/12/05 10:12:00;;;;;;;5.82;2.10;;;4.00;99.90;;;;;;5043546;28;20405;-84
2020/12/05 10:14:26;;;;;;;6.35;2.75;;;4.00;99.90;;;;;;5041631;28;20037;-83
2020/12/05 10:16:51;;;;;;;5.55;2.92;;;4.00;99.90;;;;;;5040767;28;20048;-83
2020/12/05 10:19:17;;;;;;;4.05;2.42;;;4.10;99.90;;;;;;5013154;28;20040;-84
2020/12/05 10:21:50;;;;;;;4.07;2.50;;;4.10;99.90;;;;;;5021677;28;20477;-84
2020/12/05 10:24:16;;;;;;;5.57;2.90;;;4.20;99.90;;;;;;5020453;28;20100;-84
2020/12/05 10:26:53;;;;;;;4.05;2.58;;;4.20;99.90;;;;;;5022888;28;20037;-84
2020/12/05 10:29:23;;;;;;;4.68;2.33;;;4.30;99.90;;;;;;5042766;28;20113;-84
2020/12/05 10:31:51;;;;;;;3.65;2.25;;;4.30;99.90;;;;;;5033314;28;20029;-83
2020/12/05 10:34:18;;;;;;;5.13;2.75;;;4.40;99.90;;;;;;5028012;28;20045;-83
2020/12/05 10:36:44;;;;;;;6.43;2.55;;;4.40;99.90;;;;;;5045103;28;20025;-83
2020/12/05 10:39:11;;;;;;;5.00;2.85;;;4.40;99.90;;;;;;5033419;28;20105;-83
2020/12/05 10:41:37;;;;;;;5.13;2.38;;;4.40;99.90;;;;;;5048822;28;20048;-83
2020/12/05 10:44:04;;;;;;;5.63;2.53;;;4.50;99.90;;;;;;5031971;28;20036;-83
2020/12/05 10:46:30;;;;;;;5.35;2.92;;;4.50;99.90;;;;;;5034030;28;20040;-83
2020/12/05 10:48:55;;;;;;;4.22;2.45;;;4.60;99.90;;;;;;5067728;28;20029;-83
2020/12/05 10:51:21;;;;;;;4.22;1.92;;;4.60;99.90;;;;;;5051399;28;20028;-83
2020/12/05 10:53:46;;;;;;;3.83;2.20;;;4.60;99.90;;;;;;5051181;28;20033;-83
2020/12/05 10:56:12;;;;;;;3.67;1.88;;;4.70;99.90;;;;;;5051422;28;20060;-84
2020/12/05 10:58:38;;;;;;;4.18;1.52;;;4.70;99.90;;;;;;5051274;28;20487;-84
2020/12/05 11:01:03;;;;;;;4.20;1.95;;;4.80;99.90;;;;;;5051114;28;20044;-83
2020/12/05 11:03:29;;;;;;;4.55;2.35;;;4.90;99.90;;;;;;5050841;28;20029;-84
2020/12/05 11:05:55;;;;;;;3.97;1.60;;;4.90;99.90;;;;;;5052326;28;20041;-83
2020/12/05 11:08:20;;;;;;;3.63;2.50;;;4.90;99.90;;;;;;5067792;28;20075;-84
2020/12/05 11:10:46;;;;;;;4.32;2.13;;;4.90;99.90;;;;;;5067574;28;20025;-85
2020/12/05 11:13:12;;;;;;;3.40;2.10;;;5.00;99.90;;;;;;5066999;28;20122;-84
2020/12/05 11:15:39;;;;;;;4.55;2.00;;;5.00;99.90;;;;;;5053055;28;20075;-84
2020/12/05 11:18:04;;;;;;;4.82;1.33;;;5.10;99.90;;;;;;5027665;28;20029;-84
2020/12/05 11:20:30;;;;;;;4.22;1.92;;;5.10;99.90;;;;;;5047331;28;20072;-84
2020/12/05 11:22:56;;;;;;;4.15;1.60;;;5.20;99.90;;;;;;5030585;28;20029;-83
2020/12/05 11:25:21;;;;;;;2.83;1.38;;;5.20;99.90;;;;;;5047217;28;20036;-84
2020/12/05 11:27:47;;;;;;;2.70;1.55;;;5.20;99.90;;;;;;5047891;28;20466;-83
2020/12/05 11:30:13;;;;;;;2.22;1.00;;;5.30;99.90;;;;;;5048033;28;20034;-83
2020/12/05 11:32:38;;;;;;;4.32;1.90;;;5.50;99.90;;;;;;5046654;28;20035;-82
2020/12/05 11:35:08;;;;;;;5.50;1.90;;;5.60;99.90;;;;;;5034513;28;20088;-84
2020/12/05 11:37:34;;;;;;;6.85;1.95;;;5.60;99.90;;;;;;5050917;28;20040;-82
2020/12/05 11:40:00;;;;;;;5.13;1.88;;;5.60;99.90;;;;;;5050587;28;20045;-84
2020/12/05 11:42:32;;;;;;;2.00;1.15;;;5.70;99.90;;;;;;5068198;28;20386;-80
2020/12/05 11:45:02;;;;;;;3.85;1.00;;;5.70;99.90;;;;;;5049692;28;20052;-83
2020/12/05 11:47:28;;;;;;;2.65;0.73;;;5.70;99.90;;;;;;5067943;28;20127;-83
2020/12/05 11:49:54;;;;;;;2.42;0.80;;;5.70;99.90;;;;;;5046987;28;20025;-83
2020/12/05 11:52:19;;;;;;;3.28;0.93;;;5.80;99.90;;;;;;5066262;28;20421;-82
2020/12/05 11:54:45;;;;;;;3.65;1.10;;;5.70;99.90;;;;;;5049368;28;20115;-81
2020/12/05 11:57:11;;;;;;;2.78;0.77;;;5.70;99.90;;;;;;5049956;28;20044;-82
2020/12/05 11:59:40;;;;;;;1.70;0.80;;;5.70;99.90;;;;;;5049483;28;20455;-83
2020/12/05 12:02:07;;;;;;;3.95;1.05;;;5.70;99.90;;;;;;5049809;28;20036;-83
2020/12/05 12:04:33;;;;;;;2.67;0.80;;;5.70;99.90;;;;;;5049230;28;20081;-83
2020/12/05 12:06:58;;;;;;;2.47;0.80;;;5.80;99.90;;;;;;5068294;28;20079;-83
2020/12/05 12:09:24;;;;;;;4.00;1.08;;;5.70;99.90;;;;;;5069610;28;20012;-82
2020/12/05 12:11:49;;;;;;;2.55;1.15;;;5.70;99.90;;;;;;5069699;28;20036;-82
2020/12/05 12:14:15;;;;;;;3.00;0.60;;;5.70;99.90;;;;;;5067879;28;20112;-84
2020/12/05 12:16:47;;;;;;;1.67;0.98;;;5.80;99.90;;;;;;5085403;28;20039;-83
2020/12/05 12:19:12;;;;;;;2.10;1.00;;;5.80;99.90;;;;;;5033843;28;20079;-83
2020/12/05 12:21:38;;;;;;;1.70;0.68;;;5.80;99.90;;;;;;5067299;28;20488;-84
2020/12/05 12:24:04;;;;;;;2.75;0.77;;;5.80;99.90;;;;;;5068733;28;20056;-83
2020/12/05 12:26:29;;;;;;;2.80;0.70;;;5.80;99.90;;;;;;5085964;28;20040;-84
2020/12/05 12:28:55;;;;;;;2.15;0.90;;;5.70;99.90;;;;;;5069222;28;20029;-83
2020/12/05 12:31:22;;;;;;;4.05;1.05;;;5.80;99.90;;;;;;5086287;28;20031;-83
2020/12/05 12:33:47;;;;;;;3.05;1.17;;;5.80;99.90;;;;;;5068940;28;20044;-83
2020/12/05 12:36:20;;;;;;;2.03;0.80;;;5.80;99.90;;;;;;5086169;28;20024;-83
2020/12/05 12:38:46;;;;;;;2.85;1.38;;;5.80;99.90;;;;;;5052345;28;20036;-83
2020/12/05 12:41:16;;;;;;;2.08;0.70;;;5.80;99.90;;;;;;5052009;28;20135;-83
2020/12/05 12:43:43;;;;;;;2.47;0.85;;;5.80;99.90;;;;;;5052363;28;20531;-81
2020/12/05 12:46:09;;;;;;;1.77;0.73;;;5.90;99.90;;;;;;5052189;28;20374;-82
2020/12/05 12:51:00;;;;;;;4.22;0.93;;;5.80;99.90;;;;;;5084602;28;20373;-84
2020/12/05 12:53:25;;;;;;;1.90;0.85;;;5.80;99.90;;;;;;5085050;28;20040;-84
2020/12/05 12:55:51;;;;;;;2.30;0.77;;;5.80;99.90;;;;;;5067796;28;20050;-84
2020/12/05 13:00:47;;;;;;;2.17;0.90;;;5.70;99.90;;;;;;5079599;28;20045;-82
2020/12/05 13:03:12;;;;;;;2.67;0.70;;;5.70;99.90;;;;;;5029312;28;20033;-83
2020/12/05 13:05:43;;;;;;;1.83;0.73;;;5.80;99.90;;;;;;5046070;28;20044;-82
2020/12/05 13:08:09;;;;;;;5.20;1.05;;;5.80;99.90;;;;;;5044322;28;20033;-82